createdAt,value
2022-10-12T00:00:37.584Z,3.51
2022-10-12T00:03:25.480Z,3.49
2022-10-12T00:06:09.804Z,3.54
2022-10-12T00:08:39.121Z,3.52
2022-10-12T00:11:08.835Z,3.41
2022-10-12T00:13:36.559Z,3.35
2022-10-12T00:16:07.010Z,3.33
2022-10-12T00:18:35.753Z,3.25
2022-10-12T00:21:15.212Z,3.26
2022-10-12T00:23:44.570Z,3.26
2022-10-12T00:26:15.362Z,3.29
2022-10-12T00:28:43.282Z,3.17
2022-10-12T00:31:14.757Z,3.12
2022-10-12T00:33:42.905Z,3.08
2022-10-12T00:36:23.679Z,3.07
2022-10-12T00:38:53.410Z,3.09
2022-10-12T00:41:24.729Z,3.16
2022-10-12T00:43:57.869Z,3.21
2022-10-12T00:46:45.302Z,2.98
2022-10-12T00:49:23.141Z,2.94
2022-10-12T00:52:05.170Z,2.89
2022-10-12T00:54:46.581Z,2.90
2022-10-12T00:57:17.467Z,2.84
2022-10-12T01:00:00.653Z,2.75
2022-10-12T01:02:32.125Z,2.71
2022-10-12T01:05:00.923Z,2.65
2022-10-12T01:07:28.712Z,2.70
2022-10-12T01:09:56.841Z,2.72
2022-10-12T01:12:24.960Z,2.67
2022-10-12T01:14:53.598Z,2.64
2022-10-12T01:17:24.809Z,2.67
2022-10-12T01:20:20.225Z,2.72
2022-10-12T01:23:08.132Z,2.68
2022-10-12T01:26:03.972Z,2.55
2022-10-12T01:28:57.387Z,2.67
2022-10-12T01:31:32.816Z,2.81
2022-10-12T01:34:40.662Z,2.71
2022-10-12T01:37:14.118Z,2.63
2022-10-12T01:39:54.192Z,2.67
2022-10-12T01:42:31.644Z,2.56
2022-10-12T01:45:03.408Z,2.48
2022-10-12T01:47:32.605Z,2.50
2022-10-12T01:50:05.687Z,2.44
2022-10-12T01:53:01.084Z,2.43
2022-10-12T01:55:56.203Z,2.38
2022-10-12T01:58:48.825Z,2.32
2022-10-12T02:01:34.528Z,2.29
2022-10-12T02:04:13.118Z,2.31
2022-10-12T02:06:53.960Z,2.48
2022-10-12T02:09:26.936Z,2.30
2022-10-12T02:11:58.800Z,2.29
2022-10-12T02:14:43.959Z,2.26
2022-10-12T02:17:16.610Z,2.28
2022-10-12T02:19:51.709Z,2.24
2022-10-12T02:22:20.242Z,2.05
2022-10-12T02:24:51.810Z,2.04
2022-10-12T02:27:22.031Z,2.08
2022-10-12T02:29:50.366Z,2.05
2022-10-12T02:32:40.087Z,2.04
2022-10-12T02:35:27.736Z,2.02
2022-10-12T02:38:03.217Z,1.97
2022-10-12T02:40:33.801Z,1.87
2022-10-12T02:43:39.037Z,1.93
2022-10-12T02:46:10.756Z,1.92
2022-10-12T02:48:40.597Z,1.97
2022-10-12T02:51:11.044Z,1.91
2022-10-12T02:53:39.627Z,1.86
2022-10-12T02:56:12.637Z,1.82
2022-10-12T02:58:44.344Z,1.82
2022-10-12T03:01:12.812Z,1.67
2022-10-12T03:03:41.302Z,1.73
2022-10-12T03:06:09.380Z,1.74
2022-10-12T03:08:37.198Z,1.72
2022-10-12T03:11:07.519Z,1.70
2022-10-12T03:13:35.607Z,1.65
2022-10-12T03:16:10.910Z,1.83
2022-10-12T03:18:39.387Z,1.73
2022-10-12T03:21:07.237Z,1.67
2022-10-12T03:23:35.052Z,1.73
2022-10-12T03:26:03.515Z,1.75
2022-10-12T03:28:31.779Z,1.64
2022-10-12T03:31:00.481Z,1.67
2022-10-12T03:33:28.367Z,1.61
2022-10-12T03:35:56.034Z,1.56
2022-10-12T03:38:23.732Z,1.57
2022-10-12T03:40:51.613Z,1.50
2022-10-12T03:43:19.351Z,1.48
2022-10-12T03:45:47.433Z,1.63
2022-10-12T03:48:15.097Z,1.67
2022-10-12T03:50:43.006Z,1.55
2022-10-12T03:53:10.880Z,1.49
2022-10-12T03:55:38.841Z,1.53
2022-10-12T03:58:06.529Z,1.60
2022-10-12T04:00:34.493Z,1.57
2022-10-12T04:03:02.347Z,1.56
2022-10-12T04:05:31.760Z,1.45
2022-10-12T04:08:00.424Z,1.41
2022-10-12T04:10:28.184Z,1.30
2022-10-12T04:12:56.551Z,1.40
2022-10-12T04:15:24.493Z,1.25
2022-10-12T04:17:52.937Z,1.39
2022-10-12T04:20:20.585Z,1.36
2022-10-12T04:22:48.493Z,1.35
2022-10-12T04:25:16.628Z,1.32
2022-10-12T04:27:44.317Z,1.27
2022-10-12T04:30:12.956Z,1.28
2022-10-12T04:32:40.742Z,1.25
2022-10-12T04:35:09.423Z,1.20
2022-10-12T04:37:37.504Z,1.25
2022-10-12T04:40:06.009Z,1.24
2022-10-12T04:42:33.663Z,1.27
2022-10-12T04:45:01.699Z,1.32
2022-10-12T04:47:29.505Z,1.27
2022-10-12T04:49:57.411Z,1.24
2022-10-12T04:52:25.232Z,1.27
2022-10-12T04:54:53.202Z,1.37
2022-10-12T04:57:21.029Z,1.34
2022-10-12T04:59:48.906Z,1.39
2022-10-12T05:02:16.687Z,1.44
2022-10-12T05:04:44.392Z,1.43
2022-10-12T05:07:12.359Z,1.41
2022-10-12T05:09:40.417Z,1.37
2022-10-12T05:12:08.376Z,1.45
2022-10-12T05:14:36.294Z,1.51
2022-10-12T05:17:04.937Z,1.51
2022-10-12T05:19:32.703Z,1.53
2022-10-12T05:22:00.659Z,1.49
2022-10-12T05:24:28.803Z,1.55
2022-10-12T05:26:56.945Z,1.57
2022-10-12T05:29:24.733Z,1.65
2022-10-12T05:31:53.436Z,1.74
2022-10-12T05:34:21.132Z,1.82
2022-10-12T05:36:50.490Z,1.95
2022-10-12T05:39:18.183Z,2.03
2022-10-12T05:41:46.003Z,2.16
2022-10-12T05:44:13.811Z,2.38
2022-10-12T05:46:41.928Z,2.60
2022-10-12T05:49:09.692Z,3.05
2022-10-12T05:51:38.815Z,3.39
2022-10-12T05:54:06.567Z,3.61
2022-10-12T05:56:34.581Z,3.66
2022-10-12T05:59:03.775Z,3.56
2022-10-12T06:01:31.953Z,3.52
2022-10-12T06:03:59.876Z,3.56
2022-10-12T06:06:27.752Z,3.63
2022-10-12T06:08:55.550Z,3.79
2022-10-12T06:11:23.554Z,4.02
2022-10-12T06:13:51.605Z,4.42
2022-10-12T06:16:19.615Z,4.33
2022-10-12T06:18:47.354Z,4.47
2022-10-12T06:21:32.632Z,4.57
2022-10-12T06:24:02.065Z,4.69
2022-10-12T06:26:30.546Z,4.79
2022-10-12T06:29:00.670Z,5.03
2022-10-12T06:31:29.461Z,5.49
2022-10-12T06:33:57.165Z,6.04
2022-10-12T06:36:25.524Z,6.34
2022-10-12T06:38:53.520Z,6.51
2022-10-12T06:41:21.432Z,6.57
2022-10-12T06:43:49.156Z,6.49
2022-10-12T06:46:17.177Z,6.66
2022-10-12T06:48:44.881Z,6.94
2022-10-12T06:51:12.747Z,6.93
2022-10-12T06:53:40.550Z,7.19
2022-10-12T06:56:10.018Z,7.44
2022-10-12T06:58:38.239Z,7.46
2022-10-12T07:01:08.468Z,7.57
2022-10-12T07:03:36.214Z,7.51
2022-10-12T07:06:13.346Z,7.55
2022-10-12T07:08:42.453Z,7.56
2022-10-12T07:11:12.848Z,7.77
2022-10-12T07:13:40.684Z,7.84
2022-10-12T07:16:08.778Z,7.98
2022-10-12T07:18:36.633Z,8.88
2022-10-12T07:21:04.871Z,10.42
2022-10-12T07:23:34.593Z,12.43
2022-10-12T07:26:02.808Z,13.34
2022-10-12T07:28:30.917Z,13.44
2022-10-12T07:31:07.884Z,13.61
2022-10-12T07:33:38.641Z,14.69
2022-10-12T07:36:14.347Z,16.69
2022-10-12T07:38:47.120Z,18.07
2022-10-12T07:41:15.982Z,19.64
2022-10-12T07:43:43.998Z,20.72
2022-10-12T07:46:12.359Z,21.45
2022-10-12T07:48:45.731Z,22.16
2022-10-12T07:51:17.490Z,22.69
2022-10-12T07:53:45.198Z,22.95
2022-10-12T07:56:17.042Z,23.71
2022-10-12T07:58:55.801Z,24.02
2022-10-12T08:01:26.021Z,24.60
2022-10-12T08:03:58.730Z,25.56
2022-10-12T08:06:31.923Z,25.37
2022-10-12T08:09:00.987Z,25.27
2022-10-12T08:11:29.259Z,25.23
2022-10-12T08:13:56.987Z,25.47
2022-10-12T08:16:25.028Z,26.01
2022-10-12T08:18:52.809Z,26.91
2022-10-12T08:21:21.219Z,27.19
2022-10-12T08:23:49.766Z,26.88
2022-10-12T08:26:17.903Z,27.49
2022-10-12T08:28:45.933Z,27.45
2022-10-12T08:31:16.422Z,27.46
2022-10-12T08:33:44.439Z,27.30
2022-10-12T08:36:13.602Z,27.59
2022-10-12T08:38:43.447Z,27.40
2022-10-12T08:41:21.314Z,27.63
2022-10-12T08:44:10.431Z,27.39
2022-10-12T08:46:38.863Z,27.96
2022-10-12T08:49:10.396Z,28.18
2022-10-12T08:51:48.252Z,28.49
2022-10-12T08:54:20.141Z,28.28
2022-10-12T08:56:48.433Z,27.68
2022-10-12T08:59:19.049Z,27.68
2022-10-12T09:01:52.697Z,28.63
2022-10-12T09:04:50.610Z,28.16
2022-10-12T09:07:27.118Z,27.80
2022-10-12T09:10:19.014Z,28.56
2022-10-12T09:13:06.146Z,28.76
2022-10-12T09:15:56.647Z,28.94
2022-10-12T09:18:41.564Z,28.00
2022-10-12T09:21:21.352Z,29.16
2022-10-12T09:23:50.207Z,28.21
2022-10-12T09:26:26.080Z,28.51
2022-10-12T09:28:58.500Z,28.10
2022-10-12T09:31:54.009Z,28.12
2022-10-12T09:34:24.987Z,27.45
2022-10-12T09:36:53.801Z,27.08
2022-10-12T09:39:29.322Z,26.36
2022-10-12T09:41:57.451Z,26.29
2022-10-12T09:44:37.068Z,26.82
2022-10-12T09:47:29.934Z,27.08
2022-10-12T09:50:04.249Z,26.84
2022-10-12T09:52:43.133Z,26.47
2022-10-12T09:57:57.215Z,25.33
2022-10-12T10:00:32.458Z,25.04
2022-10-12T10:03:02.139Z,24.81
2022-10-12T10:05:33.650Z,24.17
2022-10-12T10:08:21.745Z,23.14
2022-10-12T10:10:54.006Z,21.80
2022-10-12T10:13:32.980Z,20.67
2022-10-12T10:16:10.469Z,19.79
2022-10-12T10:18:52.859Z,19.23
2022-10-12T10:21:37.944Z,18.40
2022-10-12T10:24:08.023Z,18.24
2022-10-12T10:26:58.524Z,17.73
2022-10-12T10:29:40.798Z,17.39
2022-10-12T10:32:28.875Z,17.46
2022-10-12T10:35:13.889Z,17.25
2022-10-12T10:37:52.307Z,17.30
2022-10-12T10:40:31.673Z,17.20
2022-10-12T10:43:06.931Z,17.36
2022-10-12T10:45:37.977Z,17.15
2022-10-12T10:48:18.163Z,17.05
2022-10-12T10:51:00.269Z,16.70
2022-10-12T10:53:42.108Z,16.55
2022-10-12T10:56:15.461Z,16.10
2022-10-12T10:58:52.390Z,15.92
2022-10-12T11:01:33.376Z,15.75
2022-10-12T11:04:03.713Z,15.60
2022-10-12T11:06:39.819Z,15.30
2022-10-12T11:09:36.841Z,15.08
2022-10-12T11:12:16.079Z,15.15
2022-10-12T11:14:50.101Z,15.37
2022-10-12T11:17:23.321Z,15.61
2022-10-12T11:20:17.338Z,15.86
2022-10-12T11:23:17.368Z,16.13
2022-10-12T11:26:14.323Z,16.32
2022-10-12T11:28:43.116Z,16.60
2022-10-12T11:31:24.374Z,16.80
2022-10-12T11:33:54.847Z,16.95
2022-10-12T11:36:26.785Z,17.04
2022-10-12T11:39:07.363Z,17.27
2022-10-12T11:42:17.053Z,17.27
2022-10-12T11:44:43.792Z,17.37
2022-10-12T11:47:20.745Z,17.39
2022-10-12T11:50:06.696Z,17.60
2022-10-12T11:52:43.723Z,17.58
2022-10-12T11:55:39.217Z,17.64
2022-10-12T11:58:18.962Z,17.49
2022-10-12T12:00:56.961Z,17.32
2022-10-12T12:03:53.944Z,17.63
2022-10-12T12:06:30.325Z,17.67
2022-10-12T12:09:04.233Z,17.68
2022-10-12T12:11:34.580Z,17.85
2022-10-12T12:14:21.103Z,18.19
2022-10-12T12:16:49.767Z,18.09
2022-10-12T12:19:40.457Z,18.04
2022-10-12T12:22:20.530Z,18.16
2022-10-12T12:25:04.445Z,18.35
2022-10-12T12:27:57.571Z,18.01
2022-10-12T12:30:39.476Z,17.67
2022-10-12T12:33:31.093Z,17.90
2022-10-12T12:36:02.621Z,18.01
2022-10-12T12:38:38.248Z,18.35
2022-10-12T12:41:11.681Z,18.23
2022-10-12T12:43:53.488Z,18.08
2022-10-12T12:46:22.572Z,17.84
2022-10-12T12:48:50.276Z,17.36
2022-10-12T12:51:24.917Z,16.95
2022-10-12T12:53:52.781Z,16.74
2022-10-12T12:56:48.214Z,16.37
2022-10-12T12:59:47.610Z,16.45
2022-10-12T13:02:37.698Z,16.26
2022-10-12T13:05:17.685Z,16.03
2022-10-12T13:08:01.670Z,15.98
2022-10-12T13:10:35.117Z,16.15
2022-10-12T13:13:19.664Z,16.52
2022-10-12T13:16:05.824Z,16.66
2022-10-12T13:19:00.590Z,16.83
2022-10-12T13:21:52.916Z,16.87
2022-10-12T13:24:31.713Z,17.02
2022-10-12T13:27:20.389Z,17.16
2022-10-12T13:30:32.918Z,17.10
2022-10-12T13:33:10.102Z,17.00
2022-10-12T13:35:49.883Z,16.87
2022-10-12T13:38:26.713Z,16.73
2022-10-12T13:41:02.198Z,16.71
2022-10-12T13:43:36.718Z,16.46
2022-10-12T13:46:05.571Z,16.41
2022-10-12T13:48:58.266Z,16.50
2022-10-12T13:51:25.065Z,16.37
2022-10-12T13:53:53.595Z,16.28
2022-10-12T13:56:25.132Z,16.23
2022-10-12T13:58:57.755Z,16.16
2022-10-12T14:01:25.528Z,16.14
2022-10-12T14:04:02.070Z,16.00
2022-10-12T14:06:37.993Z,16.00
2022-10-12T14:09:15.067Z,15.89
2022-10-12T14:11:44.542Z,15.76
2022-10-12T14:14:31.382Z,15.85
2022-10-12T14:16:59.651Z,15.77
2022-10-12T14:19:53.756Z,15.60
2022-10-12T14:22:32.741Z,15.50
2022-10-12T14:25:16.707Z,15.37
2022-10-12T14:27:44.743Z,15.27
2022-10-12T14:30:22.538Z,15.10
2022-10-12T14:32:54.044Z,14.94
2022-10-12T14:35:29.235Z,14.91
2022-10-12T14:37:57.504Z,14.89
2022-10-12T14:40:31.629Z,14.75
2022-10-12T14:43:05.541Z,14.73
2022-10-12T14:45:34.056Z,14.79
2022-10-12T14:48:03.291Z,14.72
2022-10-12T14:50:32.460Z,14.64
2022-10-12T14:53:04.115Z,14.49
2022-10-12T14:55:34.030Z,14.58
2022-10-12T14:58:01.842Z,14.45
2022-10-12T15:00:32.595Z,14.17
2022-10-12T15:03:01.171Z,14.06
2022-10-12T15:05:34.072Z,13.85
2022-10-12T15:08:07.507Z,13.81
2022-10-12T15:10:36.881Z,13.88
2022-10-12T15:13:04.829Z,13.96
2022-10-12T15:15:49.389Z,13.73
2022-10-12T15:18:17.458Z,13.44
2022-10-12T15:20:49.307Z,13.26
2022-10-12T15:23:18.160Z,13.12
2022-10-12T15:25:50.522Z,12.94
2022-10-12T15:28:19.105Z,12.88
2022-10-12T15:31:15.407Z,12.86
2022-10-12T15:33:35.175Z,12.67
2022-10-12T15:36:03.585Z,12.46
2022-10-12T15:38:31.722Z,12.28
2022-10-12T15:40:59.453Z,12.01
2022-10-12T15:43:27.992Z,11.89
2022-10-12T15:45:56.659Z,11.70
2022-10-12T15:48:24.748Z,11.54
2022-10-12T15:50:52.554Z,11.39
2022-10-12T15:53:24.441Z,11.09
2022-10-12T15:55:54.246Z,10.99
2022-10-12T15:58:23.039Z,10.85
2022-10-12T16:00:50.876Z,10.71
2022-10-12T16:03:25.993Z,10.55
2022-10-12T16:05:54.663Z,10.48
2022-10-12T16:08:23.627Z,10.43
2022-10-12T16:10:51.667Z,10.38
2022-10-12T16:13:20.092Z,10.26
2022-10-12T16:15:47.825Z,10.13
2022-10-12T16:18:16.015Z,10.03
2022-10-12T16:20:48.565Z,9.96
2022-10-12T16:23:27.568Z,9.99
2022-10-12T16:25:56.273Z,10.00
2022-10-12T16:28:25.193Z,9.81
2022-10-12T16:30:55.198Z,9.69
2022-10-12T16:33:23.281Z,9.62
2022-10-12T16:35:51.028Z,9.57
2022-10-12T16:38:21.689Z,9.51
2022-10-12T16:40:49.953Z,9.55
2022-10-12T16:43:18.091Z,9.52
2022-10-12T16:45:45.927Z,9.56
2022-10-12T16:48:13.868Z,9.56
2022-10-12T16:50:43.035Z,9.55
2022-10-12T16:53:10.968Z,9.43
2022-10-12T16:55:39.342Z,9.54
2022-10-12T16:58:07.259Z,9.64
2022-10-12T17:00:35.039Z,9.92
2022-10-12T17:03:03.112Z,10.01
2022-10-12T17:05:31.062Z,9.80
2022-10-12T17:07:59.674Z,9.68
2022-10-12T17:10:27.589Z,9.67
2022-10-12T17:12:55.618Z,9.68
2022-10-12T17:15:23.478Z,9.55
2022-10-12T17:17:51.530Z,9.51
2022-10-12T17:20:19.339Z,9.52
2022-10-12T17:22:47.176Z,9.55
2022-10-12T17:25:14.890Z,9.63
2022-10-12T17:27:42.813Z,9.62
2022-10-12T17:30:10.946Z,9.82
2022-10-12T17:32:38.911Z,9.68
2022-10-12T17:35:06.899Z,9.90
2022-10-12T17:37:34.934Z,9.72
2022-10-12T17:40:04.303Z,9.90
2022-10-12T17:42:32.395Z,9.77
2022-10-12T17:45:00.098Z,9.64
2022-10-12T17:47:28.097Z,9.55
2022-10-12T17:49:55.787Z,9.55
2022-10-12T17:52:23.709Z,9.40
2022-10-12T17:54:51.736Z,9.57
2022-10-12T17:57:20.162Z,9.46
2022-10-12T17:59:48.339Z,9.42
2022-10-12T18:02:16.099Z,9.55
2022-10-12T18:04:44.851Z,9.44
2022-10-12T18:07:12.625Z,9.25
2022-10-12T18:09:41.356Z,9.23
2022-10-12T18:12:09.281Z,9.15
2022-10-12T18:14:37.071Z,9.10
2022-10-12T18:17:04.777Z,9.04
2022-10-12T18:19:32.802Z,9.24
2022-10-12T18:22:00.529Z,9.22
2022-10-12T18:24:28.349Z,9.30
2022-10-12T18:26:56.312Z,9.39
2022-10-12T18:29:24.366Z,9.29
2022-10-12T18:31:53.223Z,9.20
2022-10-12T18:34:21.143Z,9.15
2022-10-12T18:36:49.112Z,9.17
2022-10-12T18:39:17.412Z,9.24
2022-10-12T18:41:45.155Z,9.20
2022-10-12T18:44:15.006Z,9.19
2022-10-12T18:46:42.922Z,9.10
2022-10-12T18:49:11.873Z,9.09
2022-10-12T18:51:42.690Z,9.04
2022-10-12T18:54:14.049Z,9.04
2022-10-12T18:56:42.954Z,9.10
2022-10-12T18:59:12.842Z,9.03
2022-10-12T19:01:41.347Z,8.99
2022-10-12T19:04:09.084Z,8.99
2022-10-12T19:06:41.281Z,8.91
2022-10-12T19:09:14.264Z,8.83
2022-10-12T19:11:42.547Z,8.95
2022-10-12T19:14:14.289Z,8.92
2022-10-12T19:16:42.783Z,8.90
2022-10-12T19:19:20.943Z,8.89
2022-10-12T19:21:51.296Z,8.81
2022-10-12T19:24:20.814Z,8.61
2022-10-12T19:26:49.296Z,8.61
2022-10-12T19:29:17.593Z,8.58
2022-10-12T19:31:49.813Z,8.54
2022-10-12T19:34:20.878Z,8.64
2022-10-12T19:36:48.751Z,8.75
2022-10-12T19:39:19.668Z,8.79
2022-10-12T19:41:48.878Z,8.71
2022-10-12T19:44:17.285Z,8.74
2022-10-12T19:46:47.790Z,8.63
2022-10-12T19:49:17.681Z,8.56
2022-10-12T19:51:45.575Z,8.41
2022-10-12T19:54:15.696Z,8.43
2022-10-12T19:56:43.458Z,8.45
2022-10-12T19:59:11.766Z,8.37
2022-10-12T20:01:40.778Z,8.47
2022-10-12T20:04:10.133Z,8.33
2022-10-12T20:06:38.873Z,8.31
2022-10-12T20:09:08.078Z,8.20
2022-10-12T20:11:38.401Z,8.03
2022-10-12T20:14:07.132Z,8.06
2022-10-12T20:16:36.372Z,7.90
2022-10-12T20:19:07.083Z,7.93
2022-10-12T20:21:36.653Z,7.83
2022-10-12T20:24:05.125Z,7.68
2022-10-12T20:26:32.942Z,7.59
2022-10-12T20:29:01.593Z,7.54
2022-10-12T20:31:29.602Z,7.52
2022-10-12T20:33:58.371Z,7.37
2022-10-12T20:36:29.384Z,7.27
2022-10-12T20:39:00.621Z,7.11
2022-10-12T20:41:30.784Z,7.17
2022-10-12T20:44:00.523Z,6.99
2022-10-12T20:46:29.863Z,6.92
2022-10-12T20:48:59.811Z,6.82
2022-10-12T20:51:33.614Z,6.81
2022-10-12T20:54:02.475Z,6.74
2022-10-12T20:56:32.606Z,6.68
2022-10-12T20:59:01.025Z,6.57
2022-10-12T21:01:29.366Z,6.47
2022-10-12T21:03:58.131Z,6.45
2022-10-12T21:06:26.344Z,6.34
2022-10-12T21:08:56.823Z,6.26
2022-10-12T21:11:26.326Z,6.24
2022-10-12T21:13:55.425Z,6.38
2022-10-12T21:16:23.958Z,6.32
2022-10-12T21:18:55.870Z,6.15
2022-10-12T21:21:24.350Z,6.18
2022-10-12T21:23:58.824Z,6.15
2022-10-12T21:26:30.450Z,6.00
2022-10-12T21:28:59.782Z,5.91
2022-10-12T21:31:32.316Z,5.95
2022-10-12T21:34:02.402Z,5.76
2022-10-12T21:36:31.629Z,5.76
2022-10-12T21:38:59.620Z,5.67
2022-10-12T21:41:29.578Z,5.76
2022-10-12T21:43:58.533Z,5.64
2022-10-12T21:46:29.544Z,5.72
2022-10-12T21:48:57.894Z,5.60
2022-10-12T21:51:27.651Z,5.51
2022-10-12T21:53:55.384Z,5.52
2022-10-12T21:56:28.942Z,5.44
2022-10-12T21:58:58.667Z,5.48
2022-10-12T22:01:34.755Z,5.36
2022-10-12T22:04:08.405Z,5.33
2022-10-12T22:06:36.548Z,5.29
2022-10-12T22:09:10.333Z,5.24
2022-10-12T22:11:38.660Z,5.30
2022-10-12T22:14:12.001Z,5.23
2022-10-12T22:16:43.206Z,5.18
2022-10-12T22:19:18.957Z,5.17
2022-10-12T22:21:49.286Z,5.07
2022-10-12T22:24:17.515Z,4.97
2022-10-12T22:26:45.833Z,4.92
2022-10-12T22:29:13.819Z,4.86
2022-10-12T22:31:41.972Z,4.80
2022-10-12T22:34:11.171Z,4.85
2022-10-12T22:36:39.121Z,4.78
2022-10-12T22:39:08.866Z,4.75
2022-10-12T22:41:37.089Z,4.74
2022-10-12T22:44:05.100Z,4.67
2022-10-12T22:46:32.925Z,4.66
2022-10-12T22:49:02.710Z,4.62
2022-10-12T22:51:36.057Z,4.75
2022-10-12T22:54:04.235Z,4.63
2022-10-12T22:56:32.651Z,4.60
2022-10-12T22:59:04.247Z,4.50
2022-10-12T23:01:32.030Z,4.49
2022-10-12T23:03:59.902Z,4.52
2022-10-12T23:06:27.758Z,4.47
2022-10-12T23:08:56.049Z,4.42
2022-10-12T23:11:26.914Z,4.42
2022-10-12T23:13:55.814Z,4.32
2022-10-12T23:16:25.916Z,4.29
2022-10-12T23:18:59.318Z,4.49
2022-10-12T23:21:29.934Z,4.45
2022-10-12T23:23:59.895Z,4.44
2022-10-12T23:26:28.851Z,4.53
2022-10-12T23:28:57.127Z,4.44
2022-10-12T23:31:27.928Z,4.41
2022-10-12T23:34:01.086Z,4.38
2022-10-12T23:36:30.767Z,4.33
2022-10-12T23:39:01.269Z,4.27
2022-10-12T23:41:29.314Z,4.21
2022-10-12T23:43:57.362Z,4.22
2022-10-12T23:46:25.485Z,4.32
2022-10-12T23:48:54.695Z,4.20
2022-10-12T23:51:22.955Z,4.15
2022-10-12T23:53:51.113Z,4.14
2022-10-12T23:56:18.859Z,4.05
2022-10-12T23:58:46.761Z,4.05
